Wolf 59 — CGBP — position and weather

sailwx.info

Track history (hours):
 
Tides and Currents Weather Stations Pressure Air Temp Water Temp Dewpoint Dewpoint Depression Visibility Wind Speed Wind Dir Waves Ship Positions

Wolf 59

Last reported at 2014-Aug-20 08:25 UTC. Time now 2014-Aug-20 08:51 UTC.
Position N 49°10' W 123°56'.

Length 33 m; draft 2.6 m.

Type: Military. MMSI: 316011515.

Date/timePositionNaut miles runAvg speedWind from/ knotsBaromVisibWave heightAir tempDewpointWater temp
2014-Aug-20 08:25N 49°10' W 123°56'0 0.0
2014-Aug-20 07:31N 49°10' W 123°56'0 0.0
2014-Aug-20 06:13N 49°10' W 123°56'0 0.0
2014-Aug-20 05:31N 49°10' W 123°56'0 0.0
2014-Aug-20 04:31N 49°10' W 123°56'0 0.0
2014-Aug-20 03:25N 49°10' W 123°56'0 0.0
2014-Aug-20 01:19N 49°10' W 123°56'0 0.1
2014-Aug-19 23:18N 49°10' W 123°56'6 8.3
2014-Aug-19 22:34N 49°15' W 123°49'3 3.3
2014-Aug-19 21:33N 49°15' W 123°44'5 5.3
2014-Aug-19 20:33N 49°13' W 123°37'9 9.3
2014-Aug-19 19:34N 49°04' W 123°34'8 8.0
2014-Aug-19 18:33N 48°58' W 123°25'9 8.9
2014-Aug-19 17:34N 48°54' W 123°14'8 7.6
2014-Aug-19 16:34N 48°49' W 123°04'8 7.8
2014-Aug-19 15:33N 48°43' W 123°12'3 0.9
2014-Aug-19 12:07N 48°45' W 123°15'0 0.0
2014-Aug-19 07:25N 48°45' W 123°15'0 0.0
2014-Aug-19 06:22N 48°45' W 123°15'0 0.0
2014-Aug-19 03:28N 48°45' W 123°15'0 0.0
2014-Aug-19 02:06N 48°45' W 123°15'0 0.0
2014-Aug-19 01:30N 48°45' W 123°15'0 0.0
2014-Aug-19 00:32N 48°45' W 123°15'3 3.2
2014-Aug-18 23:34N 48°42' W 123°14'1313.1
2014-Aug-18 22:33N 48°29' W 123°10'7 6.9
2014-Aug-18 21:33N 48°23' W 123°13'1 1.3
2014-Aug-18 20:34N 48°22' W 123°14'4 4.4
2014-Aug-18 19:33N 48°20' W 123°20'1 1.3
2014-Aug-18 18:33N 48°19' W 123°21'8 7.9
2014-Aug-18 17:33N 48°26' W 123°27'0 0.4
2014-Aug-18 16:21N 48°26' W 123°26'0 0.0
2014-Aug-18 15:27N 48°26' W 123°26'0 0.0
2014-Aug-18 14:33N 48°26' W 123°26'0 0.0
2014-Aug-18 13:33N 48°26' W 123°26'0 0.0
2014-Aug-18 12:33N 48°26' W 123°26'0 0.0
2014-Aug-18 11:27N 48°26' W 123°26'0 0.0
2014-Aug-18 10:27N 48°26' W 123°26'0 0.0
2014-Aug-18 09:27N 48°26' W 123°26'0 0.0
2014-Aug-18 08:03N 48°26' W 123°26'0 0.0
2014-Aug-18 06:18N 48°26' W 123°26'0 0.0
2014-Aug-18 05:30N 48°26' W 123°26'0 0.0
2014-Aug-18 04:30N 48°26' W 123°26'0 0.0
2014-Aug-18 03:30N 48°26' W 123°26'0 0.0
2014-Aug-18 02:30N 48°26' W 123°26'0 0.0
2014-Aug-18 01:30N 48°26' W 123°26'0 0.0
2014-Aug-17 18:09N 48°26' W 123°26'0 0.0
2014-Aug-17 12:21N 48°26' W 123°26'0 0.0
2014-Aug-17 11:15N 48°26' W 123°26'0 0.0
2014-Aug-17 09:15N 48°26' W 123°26'0 0.0
2014-Aug-17 08:33N 48°26' W 123°26'0 0.0
2014-Aug-17 04:18N 48°26' W 123°26'0 0.0
2014-Aug-17 02:24N 48°26' W 123°26'0 0.0
2014-Aug-17 01:30N 48°26' W 123°26'0 0.0
2014-Aug-17 00:30N 48°26' W 123°26'0 0.0
2014-Aug-16 20:21N 48°26' W 123°26'0 0.0
2014-Aug-16 10:33N 48°26' W 123°26'0 0.0
2014-Aug-16 01:06N 48°26' W 123°26'0 0.0
2014-Aug-16 00:27N 48°26' W 123°26'0 0.0
2014-Aug-15 23:27N 48°26' W 123°26'0 0.0
2014-Aug-15 21:33N 48°26' W 123°26'0 0.0
2014-Aug-15 20:18N 48°26' W 123°26'0 0.0
2014-Aug-15 19:30N 48°26' W 123°26'0 0.0
2014-Aug-15 18:06N 48°26' W 123°26'0 0.0
2014-Aug-15 16:27N 48°26' W 123°26'0 0.0
2014-Aug-15 15:33N 48°26' W 123°26'0 0.0
2014-Aug-15 14:33N 48°26' W 123°26'0 0.0
2014-Aug-15 13:33N 48°26' W 123°26'0 0.0
2014-Aug-15 12:33N 48°26' W 123°26'0 0.0
2014-Aug-15 11:33N 48°26' W 123°26'0 0.0
2014-Aug-15 10:33N 48°26' W 123°26'0 0.0
2014-Aug-15 09:33N 48°26' W 123°26'0 0.0
2014-Aug-15 08:33N 48°26' W 123°26'0 0.0
2014-Aug-15 07:33N 48°26' W 123°26'0 0.0
2014-Aug-15 06:27N 48°26' W 123°26'0 0.0
2014-Aug-15 05:33N 48°26' W 123°26'0 0.0
2014-Aug-15 04:33N 48°26' W 123°26'0 0.0
2014-Aug-15 03:33N 48°26' W 123°26'0 0.0
2014-Aug-15 02:33N 48°26' W 123°26'0 0.0
2014-Aug-15 01:33N 48°26' W 123°26'0 0.0
2014-Aug-15 00:27N 48°26' W 123°26'0 0.0
2014-Aug-14 23:33N 48°26' W 123°26'0 0.0
2014-Aug-14 22:33N 48°26' W 123°26'0 0.0
2014-Aug-14 21:33N 48°26' W 123°26'0 0.0
2014-Aug-14 20:33N 48°26' W 123°26'1 0.7
2014-Aug-14 19:33N 48°26' W 123°27'0 0.0
2014-Aug-14 18:31N 48°26' W 123°27'0 0.0
2014-Aug-14 17:34N 48°26' W 123°27'1 0.7
2014-Aug-14 16:30N 48°26' W 123°26'0 0.0
2014-Aug-14 15:06N 48°26' W 123°26'0 0.0
2014-Aug-14 14:18N 48°26' W 123°26'0 0.0
2014-Aug-14 13:21N 48°26' W 123°26'0 0.0
2014-Aug-14 05:18N 48°26' W 123°26'0 0.0
2014-Aug-14 04:12N 48°26' W 123°26'0 0.0
2014-Aug-14 03:30N 48°26' W 123°26'0 0.0
2014-Aug-14 02:18N 48°26' W 123°26'0 0.0
2014-Aug-14 01:30N 48°26' W 123°26'0 0.0
2014-Aug-14 00:30N 48°26' W 123°26'0 0.0
2014-Aug-13 23:30N 48°26' W 123°26'3 3.0
2014-Aug-13 22:33N 48°24' W 123°24'9 9.0
2014-Aug-13 21:34N 48°29' W 123°13'1514.2
2014-Aug-13 20:31N 48°44' W 123°17'1010.6
2014-Aug-13 19:34N 48°54' W 123°18'1918.6
2014-Aug-13 18:34N 49°09' W 123°35'1717.3
2014-Aug-13 17:33N 49°18' W 123°58'1515.0
2014-Aug-13 16:33N 49°25' W 124°18'1514.3
2014-Aug-13 15:32N 49°34' W 124°36'1411.7
2014-Aug-13 14:21N 49°40' W 124°55'0 0.0
2014-Aug-12 21:17N 49°40' W 124°56'7 9.4
2014-Aug-12 20:32N 49°33' W 124°51'10 9.3
2014-Aug-12 19:30N 49°28' W 124°39'9 9.5
2014-Aug-12 18:33N 49°37' W 124°38'19 0.4
2014-Aug-10 17:26N 49°52' W 124°57'1213.5
2014-Aug-10 16:33N 49°41' W 124°49'4 2.2
2014-Aug-10 14:31N 49°40' W 124°55'0 0.0
2014-Aug-10 13:24N 49°40' W 124°55'0 0.0
2014-Aug-10 12:31N 49°40' W 124°55'  
Track history (hours):
 
Tides and Currents Weather Stations Pressure Air Temp Water Temp Dewpoint Dewpoint Depression Visibility Wind Speed Wind Dir Waves Ship Positions

Wolf 59

Last reported at 2014-Aug-20 08:25 UTC. Time now 2014-Aug-20 08:51 UTC.
Position N 49°10' W 123°56'.

Length 33 m; draft 2.6 m.

Type: Military. MMSI: 316011515.

Date/timePositionNaut miles runAvg speedWind from/ knotsBaromVisibWave heightAir tempDewpointWater temp
2014-Aug-20 08:25N 49°10' W 123°56'0 0.0
2014-Aug-20 07:31N 49°10' W 123°56'0 0.0
2014-Aug-20 06:13N 49°10' W 123°56'0 0.0
2014-Aug-20 05:31N 49°10' W 123°56'0 0.0
2014-Aug-20 04:31N 49°10' W 123°56'0 0.0
2014-Aug-20 03:25N 49°10' W 123°56'0 0.0
2014-Aug-20 01:19N 49°10' W 123°56'0 0.1
2014-Aug-19 23:18N 49°10' W 123°56'6 8.3
2014-Aug-19 22:34N 49°15' W 123°49'3 3.3
2014-Aug-19 21:33N 49°15' W 123°44'5 5.3
2014-Aug-19 20:33N 49°13' W 123°37'9 9.3
2014-Aug-19 19:34N 49°04' W 123°34'8 8.0
2014-Aug-19 18:33N 48°58' W 123°25'9 8.9
2014-Aug-19 17:34N 48°54' W 123°14'8 7.6
2014-Aug-19 16:34N 48°49' W 123°04'8 7.8
2014-Aug-19 15:33N 48°43' W 123°12'3 0.9
2014-Aug-19 12:07N 48°45' W 123°15'0 0.0
2014-Aug-19 07:25N 48°45' W 123°15'0 0.0
2014-Aug-19 06:22N 48°45' W 123°15'0 0.0
2014-Aug-19 03:28N 48°45' W 123°15'0 0.0
2014-Aug-19 02:06N 48°45' W 123°15'0 0.0
2014-Aug-19 01:30N 48°45' W 123°15'0 0.0
2014-Aug-19 00:32N 48°45' W 123°15'3 3.2
2014-Aug-18 23:34N 48°42' W 123°14'1313.1
2014-Aug-18 22:33N 48°29' W 123°10'7 6.9
2014-Aug-18 21:33N 48°23' W 123°13'1 1.3
2014-Aug-18 20:34N 48°22' W 123°14'4 4.4
2014-Aug-18 19:33N 48°20' W 123°20'1 1.3
2014-Aug-18 18:33N 48°19' W 123°21'8 7.9
2014-Aug-18 17:33N 48°26' W 123°27'0 0.4
2014-Aug-18 16:21N 48°26' W 123°26'0 0.0
2014-Aug-18 15:27N 48°26' W 123°26'0 0.0
2014-Aug-18 14:33N 48°26' W 123°26'0 0.0
2014-Aug-18 13:33N 48°26' W 123°26'0 0.0
2014-Aug-18 12:33N 48°26' W 123°26'0 0.0
2014-Aug-18 11:27N 48°26' W 123°26'0 0.0
2014-Aug-18 10:27N 48°26' W 123°26'0 0.0
2014-Aug-18 09:27N 48°26' W 123°26'0 0.0
2014-Aug-18 08:03N 48°26' W 123°26'0 0.0
2014-Aug-18 06:18N 48°26' W 123°26'0 0.0
2014-Aug-18 05:30N 48°26' W 123°26'0 0.0
2014-Aug-18 04:30N 48°26' W 123°26'0 0.0
2014-Aug-18 03:30N 48°26' W 123°26'0 0.0
2014-Aug-18 02:30N 48°26' W 123°26'0 0.0
2014-Aug-18 01:30N 48°26' W 123°26'0 0.0
2014-Aug-17 18:09N 48°26' W 123°26'0 0.0
2014-Aug-17 12:21N 48°26' W 123°26'0 0.0
2014-Aug-17 11:15N 48°26' W 123°26'0 0.0
2014-Aug-17 09:15N 48°26' W 123°26'0 0.0
2014-Aug-17 08:33N 48°26' W 123°26'0 0.0
2014-Aug-17 04:18N 48°26' W 123°26'0 0.0
2014-Aug-17 02:24N 48°26' W 123°26'0 0.0
2014-Aug-17 01:30N 48°26' W 123°26'0 0.0
2014-Aug-17 00:30N 48°26' W 123°26'0 0.0
2014-Aug-16 20:21N 48°26' W 123°26'0 0.0
2014-Aug-16 10:33N 48°26' W 123°26'0 0.0
2014-Aug-16 01:06N 48°26' W 123°26'0 0.0
2014-Aug-16 00:27N 48°26' W 123°26'0 0.0
2014-Aug-15 23:27N 48°26' W 123°26'0 0.0
2014-Aug-15 21:33N 48°26' W 123°26'0 0.0
2014-Aug-15 20:18N 48°26' W 123°26'0 0.0
2014-Aug-15 19:30N 48°26' W 123°26'0 0.0
2014-Aug-15 18:06N 48°26' W 123°26'0 0.0
2014-Aug-15 16:27N 48°26' W 123°26'0 0.0
2014-Aug-15 15:33N 48°26' W 123°26'0 0.0
2014-Aug-15 14:33N 48°26' W 123°26'0 0.0
2014-Aug-15 13:33N 48°26' W 123°26'0 0.0
2014-Aug-15 12:33N 48°26' W 123°26'0 0.0
2014-Aug-15 11:33N 48°26' W 123°26'0 0.0
2014-Aug-15 10:33N 48°26' W 123°26'0 0.0
2014-Aug-15 09:33N 48°26' W 123°26'0 0.0
2014-Aug-15 08:33N 48°26' W 123°26'0 0.0
2014-Aug-15 07:33N 48°26' W 123°26'0 0.0
2014-Aug-15 06:27N 48°26' W 123°26'0 0.0
2014-Aug-15 05:33N 48°26' W 123°26'0 0.0
2014-Aug-15 04:33N 48°26' W 123°26'0 0.0
2014-Aug-15 03:33N 48°26' W 123°26'0 0.0
2014-Aug-15 02:33N 48°26' W 123°26'0 0.0
2014-Aug-15 01:33N 48°26' W 123°26'0 0.0
2014-Aug-15 00:27N 48°26' W 123°26'0 0.0
2014-Aug-14 23:33N 48°26' W 123°26'0 0.0
2014-Aug-14 22:33N 48°26' W 123°26'0 0.0
2014-Aug-14 21:33N 48°26' W 123°26'0 0.0
2014-Aug-14 20:33N 48°26' W 123°26'1 0.7
2014-Aug-14 19:33N 48°26' W 123°27'0 0.0
2014-Aug-14 18:31N 48°26' W 123°27'0 0.0
2014-Aug-14 17:34N 48°26' W 123°27'1 0.7
2014-Aug-14 16:30N 48°26' W 123°26'0 0.0
2014-Aug-14 15:06N 48°26' W 123°26'0 0.0
2014-Aug-14 14:18N 48°26' W 123°26'0 0.0
2014-Aug-14 13:21N 48°26' W 123°26'0 0.0
2014-Aug-14 05:18N 48°26' W 123°26'0 0.0
2014-Aug-14 04:12N 48°26' W 123°26'0 0.0
2014-Aug-14 03:30N 48°26' W 123°26'0 0.0
2014-Aug-14 02:18N 48°26' W 123°26'0 0.0
2014-Aug-14 01:30N 48°26' W 123°26'0 0.0
2014-Aug-14 00:30N 48°26' W 123°26'0 0.0
2014-Aug-13 23:30N 48°26' W 123°26'3 3.0
2014-Aug-13 22:33N 48°24' W 123°24'9 9.0
2014-Aug-13 21:34N 48°29' W 123°13'1514.2
2014-Aug-13 20:31N 48°44' W 123°17'1010.6
2014-Aug-13 19:34N 48°54' W 123°18'1918.6
2014-Aug-13 18:34N 49°09' W 123°35'1717.3
2014-Aug-13 17:33N 49°18' W 123°58'1515.0
2014-Aug-13 16:33N 49°25' W 124°18'1514.3
2014-Aug-13 15:32N 49°34' W 124°36'1411.7
2014-Aug-13 14:21N 49°40' W 124°55'0 0.0
2014-Aug-12 21:17N 49°40' W 124°56'7 9.4
2014-Aug-12 20:32N 49°33' W 124°51'10 9.3
2014-Aug-12 19:30N 49°28' W 124°39'9 9.5
2014-Aug-12 18:33N 49°37' W 124°38'19 0.4
2014-Aug-10 17:26N 49°52' W 124°57'1213.5
2014-Aug-10 16:33N 49°41' W 124°49'4 2.2
2014-Aug-10 14:31N 49°40' W 124°55'0 0.0
2014-Aug-10 13:24N 49°40' W 124°55'0 0.0
2014-Aug-10 12:31N 49°40' W 124°55'  

Dump ship's entire track history